Europa — C6QK8 — position and weather

sailwx.info

Track history (hours):
 
Tides and Currents Weather Stations Pressure Air Temp Water Temp Dewpoint Dewpoint Depression Visibility Wind Speed Wind Dir Waves Ship Positions

Europa

Operator: Hapag-Lloyd Container Line

Last reported at 2017-Nov-19 07:42 UTC. Time now 2017-Nov-24 09:33 UTC.
Position N 28°05' W 017°07'.

Length 199 m; draft 6.2 m.

Type: Passenger vessel. MMSI: 308007000.

Date/timePositionNaut miles runAvg speedWind from/ knotsBaromVisibWave heightAir tempDewpointWater temp
2017-Nov-19 07:42N 28°05' W 017°07'0 0.0
2017-Nov-19 07:22N 28°05' W 017°07'2 4.5
2017-Nov-19 07:01N 28°05' W 017°05'9 6.6
2017-Nov-19 05:38N 28°14' W 017°09'1 8.0
2017-Nov-19 05:30N 28°14' W 017°10'15 7.9
2017-Nov-19 03:32N 28°24' W 017°23'0 8.3
2017-Nov-19 03:29N 28°24' W 017°24'4 8.4
2017-Nov-19 03:00N 28°27' W 017°27'4 7.6
2017-Nov-19 02:30N 28°29' W 017°31'4 7.6
2017-Nov-19 02:00N 28°32' W 017°34'4 7.4
2017-Nov-19 01:29N 28°34' W 017°37'4 7.6
2017-Nov-19 00:55N 28°37' W 017°41'3 7.5
2017-Nov-19 00:29N 28°39' W 017°44'169 5.8
2017-Nov-17 19:33N 31°25' W 017°09'114.7
2017-Nov-17 19:30N 31°26' W 017°09'714.5
2017-Nov-17 19:00N 31°33' W 017°07'714.4
2017-Nov-17 18:30N 31°40' W 017°06'  
2017-Nov-13 00:30N 35°58' W 005°37'715.1
2017-Nov-13 00:00N 35°60' W 005°28'815.4
2017-Nov-12 23:31N 36°01' W 005°19'815.8
2017-Nov-12 23:00N 36°03' W 005°09'20315.7
2017-Nov-12 10:04N 37°02' W 001°08'214.2
2017-Nov-12 09:56N 37°03' W 001°06'814.4
2017-Nov-12 09:23N 37°08' W 000°58'814.3
2017-Nov-12 08:50N 37°12' W 000°49'514.3
2017-Nov-12 08:31N 37°15' W 000°45'714.4
2017-Nov-12 08:01N 37°19' W 000°37'714.3
2017-Nov-12 07:31N 37°23' W 000°30'714.3
2017-Nov-12 07:00N 37°28' W 000°23'714.3
2017-Nov-12 06:30N 37°32' W 000°15'714.4
2017-Nov-12 06:01N 37°36' W 000°08'14813.6
2017-Nov-11 19:08N 39°10' E 002°17'214.4
2017-Nov-11 18:59N 39°11' E 002°19'714.1
2017-Nov-11 18:30N 39°17' E 002°25'714.4
2017-Nov-11 18:00N 39°22' E 002°30'714.4
2017-Nov-11 17:30N 39°28' E 002°36'611.0
2017-Nov-11 17:00N 39°33' E 002°38'0 0.3
2017-Nov-11 16:24N 39°33' E 002°38'0 0.0
2017-Nov-11 16:00N 39°33' E 002°38'0 0.0
2017-Nov-11 15:30N 39°33' E 002°38'0 0.0
2017-Nov-11 15:00N 39°33' E 002°38'0 0.0
2017-Nov-11 14:30N 39°33' E 002°38'0 0.0
2017-Nov-11 13:57N 39°33' E 002°38'0 0.0
2017-Nov-11 13:30N 39°33' E 002°38'0 0.0
2017-Nov-11 13:00N 39°33' E 002°38'0 0.0
2017-Nov-11 12:30N 39°33' E 002°38'0 0.0
2017-Nov-11 12:00N 39°33' E 002°38'0 0.0
2017-Nov-11 11:27N 39°33' E 002°38'0 0.0
2017-Nov-11 11:00N 39°33' E 002°38'0 0.0
2017-Nov-11 10:30N 39°33' E 002°38'0 0.0
2017-Nov-11 10:00N 39°33' E 002°38'0 0.0
2017-Nov-11 09:30N 39°33' E 002°38'0 0.0
2017-Nov-11 09:00N 39°33' E 002°38'0 0.0
2017-Nov-11 08:30N 39°33' E 002°38'0 0.0
2017-Nov-11 08:00N 39°33' E 002°38'0 0.0
2017-Nov-11 07:30N 39°33' E 002°38'0 0.0
2017-Nov-11 07:00N 39°33' E 002°38'0 0.0
2017-Nov-11 06:30N 39°33' E 002°38'0 0.0
2017-Nov-11 06:00N 39°33' E 002°38'0 0.0
2017-Nov-11 05:30N 39°33' E 002°38'0 0.0
2017-Nov-11 05:00N 39°33' E 002°38'0 0.0
2017-Nov-11 04:30N 39°33' E 002°38'0 0.0
2017-Nov-11 04:00N 39°33' E 002°38'0 0.0
2017-Nov-11 03:30N 39°33' E 002°38'0 0.0
2017-Nov-11 03:00N 39°33' E 002°38'0 0.0
2017-Nov-11 02:30N 39°33' E 002°38'0 0.0
2017-Nov-11 02:00N 39°33' E 002°38'0 0.0
2017-Nov-11 01:30N 39°33' E 002°38'0 0.0
2017-Nov-11 01:00N 39°33' E 002°38'0 0.0
2017-Nov-11 00:30N 39°33' E 002°38'0 0.0
2017-Nov-11 00:00N 39°33' E 002°38'0 0.0
2017-Nov-10 23:30N 39°33' E 002°38'0 0.0
2017-Nov-10 23:00N 39°33' E 002°38'0 0.0
2017-Nov-10 22:27N 39°33' E 002°38'0 0.0
2017-Nov-10 22:00N 39°33' E 002°38'0 0.0
2017-Nov-10 21:27N 39°33' E 002°38'0 0.0
2017-Nov-10 21:00N 39°33' E 002°38'0 0.0
2017-Nov-10 20:30N 39°33' E 002°38'0 0.0
2017-Nov-10 20:00N 39°33' E 002°38'0 0.0
2017-Nov-10 19:30N 39°33' E 002°38'0 0.0
2017-Nov-10 18:57N 39°33' E 002°38'0 0.0
2017-Nov-10 18:30N 39°33' E 002°38'0 0.0
2017-Nov-10 18:00N 39°33' E 002°38'0 0.0
2017-Nov-10 17:30N 39°33' E 002°38'0 0.0
2017-Nov-10 17:00N 39°33' E 002°38'0 0.0
2017-Nov-10 16:27N 39°33' E 002°38'0 0.0
2017-Nov-10 16:00N 39°33' E 002°38'0 0.0
2017-Nov-10 15:30N 39°33' E 002°38'0 0.0
2017-Nov-10 15:00N 39°33' E 002°38'0 0.0
2017-Nov-10 14:30N 39°33' E 002°38'0 0.0
2017-Nov-10 14:00N 39°33' E 002°38'0 0.0
2017-Nov-10 13:30N 39°33' E 002°38'0 0.0
2017-Nov-10 13:00N 39°33' E 002°38'0 0.0
2017-Nov-10 12:27N 39°33' E 002°38'0 0.0
2017-Nov-10 12:00N 39°33' E 002°38'0 0.0
2017-Nov-10 11:30N 39°33' E 002°38'0 0.0
2017-Nov-10 11:00N 39°33' E 002°38'0 0.0
2017-Nov-10 10:24N 39°33' E 002°38'0 0.0
2017-Nov-10 10:00N 39°33' E 002°38'0 0.0
2017-Nov-10 09:30N 39°33' E 002°38'0 0.0
2017-Nov-10 09:00N 39°33' E 002°38'0 0.0
2017-Nov-10 08:30N 39°33' E 002°38'0 0.0
2017-Nov-10 08:00N 39°33' E 002°38'0 0.0
2017-Nov-10 07:30N 39°33' E 002°38'0 0.0
2017-Nov-10 07:00N 39°33' E 002°38'0 0.0
2017-Nov-10 06:30N 39°33' E 002°38'0 0.0
2017-Nov-10 06:00N 39°33' E 002°38'0 0.0
2017-Nov-10 05:30N 39°33' E 002°38'0 0.0
2017-Nov-10 05:00N 39°33' E 002°38'0 0.0
2017-Nov-10 04:30N 39°33' E 002°38'0 0.0
2017-Nov-10 04:00N 39°33' E 002°38'0 0.0
2017-Nov-10 03:30N 39°33' E 002°38'0 0.0
2017-Nov-10 03:00N 39°33' E 002°38'0 0.0
2017-Nov-10 02:30N 39°33' E 002°38'0 0.0
2017-Nov-10 02:00N 39°33' E 002°38'0 0.0
2017-Nov-10 01:30N 39°33' E 002°38'0 0.0
2017-Nov-10 01:00N 39°33' E 002°38'0 0.0
2017-Nov-10 00:30N 39°33' E 002°38'0 0.0
2017-Nov-10 00:00N 39°33' E 002°38'0 0.0
2017-Nov-09 23:27N 39°33' E 002°38'0 0.0
2017-Nov-09 23:00N 39°33' E 002°38'0 0.0
2017-Nov-09 22:30N 39°33' E 002°38'0 0.0
2017-Nov-09 22:00N 39°33' E 002°38'0 0.0
2017-Nov-09 21:30N 39°33' E 002°38'0 0.0
2017-Nov-09 20:57N 39°33' E 002°38'0 0.0
2017-Nov-09 20:30N 39°33' E 002°38'0 0.0
2017-Nov-09 20:00N 39°33' E 002°38'0 0.0
2017-Nov-09 19:30N 39°33' E 002°38'0 0.0
2017-Nov-09 19:01N 39°33' E 002°38'0 0.0
2017-Nov-09 18:30N 39°33' E 002°38'0 0.0
2017-Nov-09 18:00N 39°33' E 002°38'0 0.0
2017-Nov-09 17:30N 39°33' E 002°38'0 0.0
2017-Nov-09 17:01N 39°33' E 002°38'0 0.0
2017-Nov-09 16:30N 39°33' E 002°38'1 2.6
2017-Nov-09 16:00N 39°32' E 002°39'4 7.1
2017-Nov-09 15:30N 39°29' E 002°37'4 7.2
2017-Nov-09 15:01N 39°26' E 002°34'3 6.7
2017-Nov-09 14:30N 39°25' E 002°30'4 7.2
2017-Nov-09 14:00N 39°25' E 002°25'4 7.4
2017-Nov-09 13:26N 39°28' E 002°21'31 9.6
2017-Nov-09 10:13N 39°57' E 002°35'513.9
2017-Nov-09 09:53N 40°00' E 002°39'513.7
2017-Nov-09 09:29N 40°04' E 002°43'813.5
2017-Nov-09 08:54N 40°10' E 002°50'513.9
2017-Nov-09 08:30N 40°15' E 002°54'914.5
2017-Nov-09 07:55N 40°21' E 003°02'  
Track history (hours):
 
Tides and Currents Weather Stations Pressure Air Temp Water Temp Dewpoint Dewpoint Depression Visibility Wind Speed Wind Dir Waves Ship Positions

Europa

Operator: Hapag-Lloyd Container Line

Last reported at 2017-Nov-19 07:42 UTC. Time now 2017-Nov-24 09:33 UTC.
Position N 28°05' W 017°07'.

Length 199 m; draft 6.2 m.

Type: Passenger vessel. MMSI: 308007000.

Date/timePositionNaut miles runAvg speedWind from/ knotsBaromVisibWave heightAir tempDewpointWater temp
2017-Nov-19 07:42N 28°05' W 017°07'0 0.0
2017-Nov-19 07:22N 28°05' W 017°07'2 4.5
2017-Nov-19 07:01N 28°05' W 017°05'9 6.6
2017-Nov-19 05:38N 28°14' W 017°09'1 8.0
2017-Nov-19 05:30N 28°14' W 017°10'15 7.9
2017-Nov-19 03:32N 28°24' W 017°23'0 8.3
2017-Nov-19 03:29N 28°24' W 017°24'4 8.4
2017-Nov-19 03:00N 28°27' W 017°27'4 7.6
2017-Nov-19 02:30N 28°29' W 017°31'4 7.6
2017-Nov-19 02:00N 28°32' W 017°34'4 7.4
2017-Nov-19 01:29N 28°34' W 017°37'4 7.6
2017-Nov-19 00:55N 28°37' W 017°41'3 7.5
2017-Nov-19 00:29N 28°39' W 017°44'169 5.8
2017-Nov-17 19:33N 31°25' W 017°09'114.7
2017-Nov-17 19:30N 31°26' W 017°09'714.5
2017-Nov-17 19:00N 31°33' W 017°07'714.4
2017-Nov-17 18:30N 31°40' W 017°06'  
2017-Nov-13 00:30N 35°58' W 005°37'715.1
2017-Nov-13 00:00N 35°60' W 005°28'815.4
2017-Nov-12 23:31N 36°01' W 005°19'815.8
2017-Nov-12 23:00N 36°03' W 005°09'20315.7
2017-Nov-12 10:04N 37°02' W 001°08'214.2
2017-Nov-12 09:56N 37°03' W 001°06'814.4
2017-Nov-12 09:23N 37°08' W 000°58'814.3
2017-Nov-12 08:50N 37°12' W 000°49'514.3
2017-Nov-12 08:31N 37°15' W 000°45'714.4
2017-Nov-12 08:01N 37°19' W 000°37'714.3
2017-Nov-12 07:31N 37°23' W 000°30'714.3
2017-Nov-12 07:00N 37°28' W 000°23'714.3
2017-Nov-12 06:30N 37°32' W 000°15'714.4
2017-Nov-12 06:01N 37°36' W 000°08'14813.6
2017-Nov-11 19:08N 39°10' E 002°17'214.4
2017-Nov-11 18:59N 39°11' E 002°19'714.1
2017-Nov-11 18:30N 39°17' E 002°25'714.4
2017-Nov-11 18:00N 39°22' E 002°30'714.4
2017-Nov-11 17:30N 39°28' E 002°36'611.0
2017-Nov-11 17:00N 39°33' E 002°38'0 0.3
2017-Nov-11 16:24N 39°33' E 002°38'0 0.0
2017-Nov-11 16:00N 39°33' E 002°38'0 0.0
2017-Nov-11 15:30N 39°33' E 002°38'0 0.0
2017-Nov-11 15:00N 39°33' E 002°38'0 0.0
2017-Nov-11 14:30N 39°33' E 002°38'0 0.0
2017-Nov-11 13:57N 39°33' E 002°38'0 0.0
2017-Nov-11 13:30N 39°33' E 002°38'0 0.0
2017-Nov-11 13:00N 39°33' E 002°38'0 0.0
2017-Nov-11 12:30N 39°33' E 002°38'0 0.0
2017-Nov-11 12:00N 39°33' E 002°38'0 0.0
2017-Nov-11 11:27N 39°33' E 002°38'0 0.0
2017-Nov-11 11:00N 39°33' E 002°38'0 0.0
2017-Nov-11 10:30N 39°33' E 002°38'0 0.0
2017-Nov-11 10:00N 39°33' E 002°38'0 0.0
2017-Nov-11 09:30N 39°33' E 002°38'0 0.0
2017-Nov-11 09:00N 39°33' E 002°38'0 0.0
2017-Nov-11 08:30N 39°33' E 002°38'0 0.0
2017-Nov-11 08:00N 39°33' E 002°38'0 0.0
2017-Nov-11 07:30N 39°33' E 002°38'0 0.0
2017-Nov-11 07:00N 39°33' E 002°38'0 0.0
2017-Nov-11 06:30N 39°33' E 002°38'0 0.0
2017-Nov-11 06:00N 39°33' E 002°38'0 0.0
2017-Nov-11 05:30N 39°33' E 002°38'0 0.0
2017-Nov-11 05:00N 39°33' E 002°38'0 0.0
2017-Nov-11 04:30N 39°33' E 002°38'0 0.0
2017-Nov-11 04:00N 39°33' E 002°38'0 0.0
2017-Nov-11 03:30N 39°33' E 002°38'0 0.0
2017-Nov-11 03:00N 39°33' E 002°38'0 0.0
2017-Nov-11 02:30N 39°33' E 002°38'0 0.0
2017-Nov-11 02:00N 39°33' E 002°38'0 0.0
2017-Nov-11 01:30N 39°33' E 002°38'0 0.0
2017-Nov-11 01:00N 39°33' E 002°38'0 0.0
2017-Nov-11 00:30N 39°33' E 002°38'0 0.0
2017-Nov-11 00:00N 39°33' E 002°38'0 0.0
2017-Nov-10 23:30N 39°33' E 002°38'0 0.0
2017-Nov-10 23:00N 39°33' E 002°38'0 0.0
2017-Nov-10 22:27N 39°33' E 002°38'0 0.0
2017-Nov-10 22:00N 39°33' E 002°38'0 0.0
2017-Nov-10 21:27N 39°33' E 002°38'0 0.0
2017-Nov-10 21:00N 39°33' E 002°38'0 0.0
2017-Nov-10 20:30N 39°33' E 002°38'0 0.0
2017-Nov-10 20:00N 39°33' E 002°38'0 0.0
2017-Nov-10 19:30N 39°33' E 002°38'0 0.0
2017-Nov-10 18:57N 39°33' E 002°38'0 0.0
2017-Nov-10 18:30N 39°33' E 002°38'0 0.0
2017-Nov-10 18:00N 39°33' E 002°38'0 0.0
2017-Nov-10 17:30N 39°33' E 002°38'0 0.0
2017-Nov-10 17:00N 39°33' E 002°38'0 0.0
2017-Nov-10 16:27N 39°33' E 002°38'0 0.0
2017-Nov-10 16:00N 39°33' E 002°38'0 0.0
2017-Nov-10 15:30N 39°33' E 002°38'0 0.0
2017-Nov-10 15:00N 39°33' E 002°38'0 0.0
2017-Nov-10 14:30N 39°33' E 002°38'0 0.0
2017-Nov-10 14:00N 39°33' E 002°38'0 0.0
2017-Nov-10 13:30N 39°33' E 002°38'0 0.0
2017-Nov-10 13:00N 39°33' E 002°38'0 0.0
2017-Nov-10 12:27N 39°33' E 002°38'0 0.0
2017-Nov-10 12:00N 39°33' E 002°38'0 0.0
2017-Nov-10 11:30N 39°33' E 002°38'0 0.0
2017-Nov-10 11:00N 39°33' E 002°38'0 0.0
2017-Nov-10 10:24N 39°33' E 002°38'0 0.0
2017-Nov-10 10:00N 39°33' E 002°38'0 0.0
2017-Nov-10 09:30N 39°33' E 002°38'0 0.0
2017-Nov-10 09:00N 39°33' E 002°38'0 0.0
2017-Nov-10 08:30N 39°33' E 002°38'0 0.0
2017-Nov-10 08:00N 39°33' E 002°38'0 0.0
2017-Nov-10 07:30N 39°33' E 002°38'0 0.0
2017-Nov-10 07:00N 39°33' E 002°38'0 0.0
2017-Nov-10 06:30N 39°33' E 002°38'0 0.0
2017-Nov-10 06:00N 39°33' E 002°38'0 0.0
2017-Nov-10 05:30N 39°33' E 002°38'0 0.0
2017-Nov-10 05:00N 39°33' E 002°38'0 0.0
2017-Nov-10 04:30N 39°33' E 002°38'0 0.0
2017-Nov-10 04:00N 39°33' E 002°38'0 0.0
2017-Nov-10 03:30N 39°33' E 002°38'0 0.0
2017-Nov-10 03:00N 39°33' E 002°38'0 0.0
2017-Nov-10 02:30N 39°33' E 002°38'0 0.0
2017-Nov-10 02:00N 39°33' E 002°38'0 0.0
2017-Nov-10 01:30N 39°33' E 002°38'0 0.0
2017-Nov-10 01:00N 39°33' E 002°38'0 0.0
2017-Nov-10 00:30N 39°33' E 002°38'0 0.0
2017-Nov-10 00:00N 39°33' E 002°38'0 0.0
2017-Nov-09 23:27N 39°33' E 002°38'0 0.0
2017-Nov-09 23:00N 39°33' E 002°38'0 0.0
2017-Nov-09 22:30N 39°33' E 002°38'0 0.0
2017-Nov-09 22:00N 39°33' E 002°38'0 0.0
2017-Nov-09 21:30N 39°33' E 002°38'0 0.0
2017-Nov-09 20:57N 39°33' E 002°38'0 0.0
2017-Nov-09 20:30N 39°33' E 002°38'0 0.0
2017-Nov-09 20:00N 39°33' E 002°38'0 0.0
2017-Nov-09 19:30N 39°33' E 002°38'0 0.0
2017-Nov-09 19:01N 39°33' E 002°38'0 0.0
2017-Nov-09 18:30N 39°33' E 002°38'0 0.0
2017-Nov-09 18:00N 39°33' E 002°38'0 0.0
2017-Nov-09 17:30N 39°33' E 002°38'0 0.0
2017-Nov-09 17:01N 39°33' E 002°38'0 0.0
2017-Nov-09 16:30N 39°33' E 002°38'1 2.6
2017-Nov-09 16:00N 39°32' E 002°39'4 7.1
2017-Nov-09 15:30N 39°29' E 002°37'4 7.2
2017-Nov-09 15:01N 39°26' E 002°34'3 6.7
2017-Nov-09 14:30N 39°25' E 002°30'4 7.2
2017-Nov-09 14:00N 39°25' E 002°25'4 7.4
2017-Nov-09 13:26N 39°28' E 002°21'31 9.6
2017-Nov-09 10:13N 39°57' E 002°35'513.9
2017-Nov-09 09:53N 40°00' E 002°39'513.7
2017-Nov-09 09:29N 40°04' E 002°43'813.5
2017-Nov-09 08:54N 40°10' E 002°50'513.9
2017-Nov-09 08:30N 40°15' E 002°54'914.5
2017-Nov-09 07:55N 40°21' E 003°02'  

Dump ship's entire track history